createdAt,value
2019-03-24T00:00:35.751Z,55.97
2019-03-24T00:03:07.596Z,55.90
2019-03-24T00:05:39.299Z,57.67
2019-03-24T00:08:12.450Z,57.73
2019-03-24T00:10:54.306Z,54.67
2019-03-24T00:13:26.882Z,55.90
2019-03-24T00:16:15.650Z,51.73
2019-03-24T00:18:47.074Z,53.60
2019-03-24T00:21:41.365Z,53.92
2019-03-24T00:24:13.647Z,53.80
2019-03-24T00:26:43.330Z,53.73
2019-03-24T00:29:13.251Z,53.43
2019-03-24T00:31:43.386Z,54.20
2019-03-24T00:34:13.703Z,53.70
2019-03-24T00:36:43.468Z,51.03
2019-03-24T00:39:13.668Z,53.17
2019-03-24T00:41:43.646Z,53.57
2019-03-24T00:44:15.430Z,52.27
2019-03-24T00:46:46.584Z,52.77
2019-03-24T00:49:16.709Z,56.07
2019-03-24T00:51:46.619Z,54.98
2019-03-24T00:54:16.834Z,53.75
2019-03-24T00:56:46.721Z,51.37
2019-03-24T00:59:16.493Z,49.50
2019-03-24T01:02:01.063Z,48.65
2019-03-24T01:04:40.820Z,41.28
2019-03-24T01:07:34.360Z,39.98
2019-03-24T01:10:05.557Z,36.83
2019-03-24T01:12:37.479Z,36.03
2019-03-24T01:15:09.056Z,35.25
2019-03-24T01:17:39.158Z,35.28
2019-03-24T01:20:09.330Z,37.20
2019-03-24T01:22:39.157Z,33.50
2019-03-24T01:25:10.430Z,31.90
2019-03-24T01:27:40.358Z,28.23
2019-03-24T01:30:10.469Z,26.77
2019-03-24T01:32:40.437Z,24.87
2019-03-24T01:35:10.366Z,20.20
2019-03-24T01:37:40.727Z,21.37
2019-03-24T01:40:11.946Z,21.48
2019-03-24T01:42:43.000Z,20.80
2019-03-24T01:45:13.718Z,18.05
2019-03-24T01:47:43.707Z,19.35
2019-03-24T01:50:13.750Z,16.67
2019-03-24T01:52:44.557Z,17.60
2019-03-24T01:55:14.504Z,18.30
2019-03-24T01:57:44.307Z,17.52
2019-03-24T02:00:14.741Z,17.17
2019-03-24T02:02:45.059Z,18.23
2019-03-24T02:05:14.953Z,17.10
2019-03-24T02:07:44.799Z,18.73
2019-03-24T02:10:16.111Z,17.75
2019-03-24T02:12:46.223Z,17.05
2019-03-24T02:15:16.126Z,16.62
2019-03-24T02:17:46.384Z,15.45
2019-03-24T02:20:16.876Z,15.23
2019-03-24T02:22:47.317Z,13.62
2019-03-24T02:25:17.167Z,16.00
2019-03-24T02:27:47.135Z,15.10
2019-03-24T02:30:17.561Z,15.15
2019-03-24T02:32:47.615Z,14.95
2019-03-24T02:35:17.720Z,14.73
2019-03-24T02:37:47.798Z,14.55
2019-03-24T02:40:17.789Z,15.28
2019-03-24T02:42:47.708Z,14.73
2019-03-24T02:45:17.669Z,13.90
2019-03-24T02:47:48.903Z,14.07
2019-03-24T02:50:18.815Z,14.20
2019-03-24T02:52:49.028Z,14.80
2019-03-24T02:55:19.363Z,14.78
2019-03-24T02:57:49.243Z,14.38
2019-03-24T03:00:19.247Z,15.43
2019-03-24T03:02:49.633Z,16.00
2019-03-24T03:05:19.436Z,15.58
2019-03-24T03:07:49.714Z,14.58
2019-03-24T03:10:20.048Z,15.90
2019-03-24T03:12:49.960Z,13.95
2019-03-24T03:15:20.724Z,16.10
2019-03-24T03:17:50.484Z,15.45
2019-03-24T03:20:20.440Z,15.50
2019-03-24T03:22:50.651Z,15.05
2019-03-24T03:25:20.745Z,16.73
2019-03-24T03:27:50.625Z,16.90
2019-03-24T03:30:21.420Z,14.95
2019-03-24T03:32:51.680Z,15.72
2019-03-24T03:35:23.438Z,17.15
2019-03-24T03:37:53.819Z,14.93
2019-03-24T03:40:23.642Z,16.57
2019-03-24T03:42:53.837Z,15.32
2019-03-24T03:45:28.962Z,15.55
2019-03-24T03:47:59.730Z,16.70
2019-03-24T03:50:29.591Z,16.12
2019-03-24T03:52:59.797Z,15.65
2019-03-24T03:55:29.704Z,16.17
2019-03-24T03:58:02.763Z,14.78
2019-03-24T04:00:34.777Z,15.28
2019-03-24T04:03:05.486Z,15.50
2019-03-24T04:05:35.518Z,17.07
2019-03-24T04:08:05.752Z,16.97
2019-03-24T04:10:35.457Z,17.98
2019-03-24T04:13:05.230Z,16.85
2019-03-24T04:15:35.028Z,18.10
2019-03-24T04:18:04.856Z,17.12
2019-03-24T04:20:34.552Z,16.77
2019-03-24T04:23:04.350Z,17.40
2019-03-24T04:25:34.081Z,16.40
2019-03-24T04:28:04.966Z,16.70
2019-03-24T04:30:34.753Z,17.35
2019-03-24T04:33:04.586Z,17.77
2019-03-24T04:35:35.691Z,16.75
2019-03-24T04:38:05.511Z,16.57
2019-03-24T04:40:35.287Z,17.60
2019-03-24T04:43:05.085Z,17.32
2019-03-24T04:45:34.932Z,18.45
2019-03-24T04:48:05.202Z,17.60
2019-03-24T04:50:35.220Z,18.15
2019-03-24T04:53:05.061Z,17.82
2019-03-24T04:55:34.891Z,17.65
2019-03-24T04:58:04.944Z,17.00
2019-03-24T05:00:39.159Z,18.70
2019-03-24T05:03:09.288Z,17.92
2019-03-24T05:05:39.444Z,17.95
2019-03-24T05:08:12.747Z,17.57
2019-03-24T05:10:44.833Z,20.43
2019-03-24T05:13:14.583Z,19.25
2019-03-24T05:15:44.290Z,19.00
2019-03-24T05:18:16.097Z,18.37
2019-03-24T05:20:45.841Z,18.32
2019-03-24T05:23:15.666Z,19.50
2019-03-24T05:25:46.547Z,18.15
2019-03-24T05:28:16.391Z,18.27
2019-03-24T05:30:48.259Z,18.60
2019-03-24T05:33:18.083Z,19.80
2019-03-24T05:35:47.812Z,18.27
2019-03-24T05:38:17.682Z,16.85
2019-03-24T05:40:47.529Z,20.00
2019-03-24T05:43:17.266Z,17.70
2019-03-24T05:45:47.095Z,19.95
2019-03-24T05:48:16.850Z,18.73
2019-03-24T05:50:46.564Z,19.25
2019-03-24T05:53:16.359Z,18.95
2019-03-24T05:55:46.183Z,21.02
2019-03-24T05:58:15.951Z,20.48
2019-03-24T06:00:45.679Z,20.57
2019-03-24T06:03:15.421Z,20.08
2019-03-24T06:05:45.222Z,21.48
2019-03-24T06:08:14.946Z,20.80
2019-03-24T06:10:44.845Z,20.92
2019-03-24T06:13:14.621Z,21.68
2019-03-24T06:15:44.418Z,22.35
2019-03-24T06:18:14.256Z,21.85
2019-03-24T06:20:44.126Z,22.98
2019-03-24T06:23:13.919Z,23.50
2019-03-24T06:25:43.870Z,25.10
2019-03-24T06:28:13.682Z,25.02
2019-03-24T06:30:43.398Z,27.95
2019-03-24T06:35:42.228Z,25.90
2019-03-24T06:38:13.926Z,27.75
2019-03-24T06:40:43.632Z,26.12
2019-03-24T06:43:13.387Z,26.40
2019-03-24T06:45:43.500Z,26.80
2019-03-24T06:48:13.249Z,26.48
2019-03-24T06:50:43.033Z,26.07
2019-03-24T06:53:12.802Z,24.12
2019-03-24T06:55:42.543Z,26.35
2019-03-24T06:58:12.409Z,40.98
2019-03-24T07:00:42.182Z,33.92
2019-03-24T07:03:13.419Z,28.65
2019-03-24T07:05:43.190Z,25.82
2019-03-24T07:08:13.004Z,26.60
2019-03-24T07:10:42.778Z,23.98
2019-03-24T07:13:12.618Z,25.85
2019-03-24T07:15:42.589Z,28.90
2019-03-24T07:18:12.329Z,27.42
2019-03-24T07:20:42.172Z,26.27
2019-03-24T07:23:11.965Z,24.37
2019-03-24T07:25:41.821Z,24.98
2019-03-24T07:28:11.630Z,80.32
2019-03-24T07:30:41.493Z,90.15
2019-03-24T07:33:11.312Z,60.90
2019-03-24T07:35:41.182Z,42.67
2019-03-24T07:38:10.899Z,26.80
2019-03-24T07:40:40.661Z,26.90
2019-03-24T07:43:10.430Z,26.85
2019-03-24T07:45:40.265Z,27.98
2019-03-24T07:48:18.714Z,26.87
2019-03-24T07:50:41.510Z,27.42
2019-03-24T07:53:11.360Z,25.48
2019-03-24T07:55:41.082Z,24.92
2019-03-24T07:58:10.854Z,26.33
2019-03-24T08:00:41.688Z,26.42
2019-03-24T08:03:11.396Z,25.68
2019-03-24T08:05:41.761Z,24.47
2019-03-24T08:08:11.597Z,24.10
2019-03-24T08:10:41.510Z,30.33
2019-03-24T08:13:11.274Z,24.82
2019-03-24T08:15:41.034Z,24.72
2019-03-24T08:18:10.798Z,24.37
2019-03-24T08:20:40.560Z,25.60
2019-03-24T08:23:10.397Z,24.37
2019-03-24T08:25:40.157Z,26.83
2019-03-24T08:28:09.979Z,25.45
2019-03-24T08:30:39.720Z,25.27
2019-03-24T08:33:09.670Z,26.63
2019-03-24T08:35:39.507Z,25.52
2019-03-24T08:38:09.426Z,43.33
2019-03-24T08:40:39.178Z,40.50
2019-03-24T08:43:08.994Z,35.73
2019-03-24T08:45:38.862Z,26.60
2019-03-24T08:48:08.866Z,25.68
2019-03-24T08:50:38.700Z,26.62
2019-03-24T08:53:08.546Z,25.82
2019-03-24T08:55:38.285Z,28.70
2019-03-24T08:58:08.193Z,25.97
2019-03-24T09:00:38.030Z,24.00
2019-03-24T09:03:07.919Z,25.92
2019-03-24T09:05:37.640Z,25.08
2019-03-24T09:08:07.558Z,26.50
2019-03-24T09:10:37.446Z,27.37
2019-03-24T09:13:07.183Z,27.32
2019-03-24T09:15:37.056Z,27.67
2019-03-24T09:18:06.869Z,31.33
2019-03-24T09:20:41.523Z,30.83
2019-03-24T09:23:10.573Z,30.47
2019-03-24T09:25:39.869Z,31.93
2019-03-24T09:28:09.621Z,31.43
2019-03-24T09:30:40.416Z,32.03
2019-03-24T09:33:09.312Z,32.17
2019-03-24T09:35:39.106Z,32.70
2019-03-24T09:38:08.947Z,33.80
2019-03-24T09:40:41.493Z,34.40
2019-03-24T09:43:11.430Z,32.27
2019-03-24T09:45:41.240Z,32.43
2019-03-24T09:48:13.417Z,32.27
2019-03-24T09:50:43.235Z,32.88
2019-03-24T09:53:13.133Z,30.33
2019-03-24T09:55:42.983Z,30.60
2019-03-24T10:10:40.761Z,31.70
2019-03-24T10:13:13.324Z,30.17
2019-03-24T10:15:43.343Z,29.60
2019-03-24T10:18:16.861Z,33.00
2019-03-24T10:20:46.655Z,31.80
2019-03-24T10:23:18.870Z,31.43
2019-03-24T10:29:32.145Z,28.40
2019-03-24T10:32:02.036Z,22.80
2019-03-24T10:34:33.847Z,24.40
2019-03-24T10:37:04.172Z,23.77
2019-03-24T10:39:34.806Z,26.30
2019-03-24T10:42:04.606Z,26.10
2019-03-24T10:45:07.252Z,24.97
2019-03-24T10:47:37.654Z,24.90
2019-03-24T10:50:09.559Z,23.97
2019-03-24T10:52:42.270Z,24.07
2019-03-24T10:55:16.092Z,24.30
2019-03-24T10:57:47.076Z,23.90
2019-03-24T11:00:27.943Z,21.57
2019-03-24T11:02:57.890Z,20.00
2019-03-24T11:05:27.808Z,17.87
2019-03-24T11:07:57.546Z,17.60
2019-03-24T11:10:27.330Z,16.20
2019-03-24T11:12:57.486Z,16.40
2019-03-24T11:15:27.455Z,16.43
2019-03-24T11:17:57.199Z,16.40
2019-03-24T11:20:28.236Z,17.70
2019-03-24T11:22:58.011Z,16.30
2019-03-24T11:25:34.768Z,14.97
2019-03-24T11:28:05.476Z,15.77
2019-03-24T11:30:36.768Z,15.80
2019-03-24T11:33:06.708Z,14.57
2019-03-24T11:35:40.103Z,13.13
2019-03-24T11:38:09.984Z,14.23
2019-03-24T11:40:39.834Z,12.20
2019-03-24T11:43:09.685Z,13.50
2019-03-24T11:45:39.667Z,12.20
2019-03-24T11:48:09.517Z,14.30
2019-03-24T11:50:39.423Z,14.40
2019-03-24T11:53:09.333Z,11.60
2019-03-24T11:55:39.235Z,10.63
2019-03-24T11:58:08.998Z,10.83
2019-03-24T12:00:40.144Z,10.40
2019-03-24T12:03:12.095Z,14.30
2019-03-24T12:05:41.827Z,10.40
2019-03-24T12:08:11.564Z,9.27
2019-03-24T12:10:41.336Z,8.93
2019-03-24T12:13:11.162Z,8.67
2019-03-24T12:15:42.038Z,7.57
2019-03-24T12:18:12.066Z,8.50
2019-03-24T12:20:42.062Z,8.80
2019-03-24T12:23:11.930Z,8.60
2019-03-24T12:25:41.752Z,14.13
2019-03-24T12:28:11.598Z,12.57
2019-03-24T12:30:45.521Z,11.57
2019-03-24T12:33:15.478Z,13.67
2019-03-24T12:35:45.326Z,15.00
2019-03-24T12:38:15.305Z,16.70
2019-03-24T12:40:45.146Z,14.70
2019-03-24T12:43:19.686Z,13.77
2019-03-24T12:45:47.515Z,15.33
2019-03-24T12:48:17.482Z,15.40
2019-03-24T12:50:47.312Z,13.93
2019-03-24T12:53:18.747Z,12.20
2019-03-24T12:55:48.632Z,13.63
2019-03-24T12:58:19.335Z,14.50
2019-03-24T13:00:49.270Z,13.63
2019-03-24T13:03:19.245Z,14.33
2019-03-24T13:05:49.112Z,14.40
2019-03-24T13:08:22.184Z,13.30
2019-03-24T13:10:56.350Z,14.27
2019-03-24T13:13:26.257Z,14.20
2019-03-24T13:15:58.224Z,15.07
2019-03-24T13:18:28.100Z,13.97
2019-03-24T13:20:57.927Z,11.43
2019-03-24T13:23:27.688Z,12.03
2019-03-24T13:34:39.351Z,8.43
2019-03-24T13:37:12.888Z,9.77
2019-03-24T13:39:43.799Z,7.67
2019-03-24T13:42:13.579Z,7.20
2019-03-24T13:44:46.315Z,5.47
2019-03-24T13:47:16.138Z,5.50
2019-03-24T13:49:45.997Z,8.07
2019-03-24T13:52:15.815Z,6.00
2019-03-24T13:54:46.269Z,6.30
2019-03-24T13:57:18.471Z,7.20
2019-03-24T13:59:48.719Z,6.30
2019-03-24T14:02:25.220Z,5.23
2019-03-24T14:04:54.933Z,6.23
2019-03-24T14:07:24.709Z,6.93
2019-03-24T14:09:54.535Z,5.60
2019-03-24T14:12:25.543Z,4.80
2019-03-24T14:14:55.352Z,5.67
2019-03-24T14:17:25.294Z,5.07
2019-03-24T14:19:56.232Z,5.73
2019-03-24T14:22:26.050Z,5.07
2019-03-24T14:24:56.738Z,4.97
2019-03-24T14:27:26.564Z,4.90
2019-03-24T14:29:56.990Z,5.13
2019-03-24T14:32:27.746Z,5.87
2019-03-24T14:35:00.340Z,5.80
2019-03-24T14:37:30.336Z,4.93
2019-03-24T14:40:00.350Z,4.60
2019-03-24T14:42:30.134Z,4.87
2019-03-24T14:44:59.946Z,4.10
2019-03-24T14:47:29.812Z,5.07
2019-03-24T14:49:59.548Z,3.80
2019-03-24T14:52:29.294Z,3.90
2019-03-24T14:54:59.139Z,4.63
2019-03-24T14:57:28.962Z,5.43
2019-03-24T14:59:59.617Z,4.80
2019-03-24T15:02:29.540Z,4.83
2019-03-24T15:04:59.295Z,3.67
2019-03-24T15:07:29.108Z,4.50
2019-03-24T15:09:59.095Z,4.80
2019-03-24T15:12:30.172Z,4.13
2019-03-24T15:15:01.254Z,4.50
2019-03-24T15:17:31.087Z,4.23
2019-03-24T15:20:00.985Z,4.53
2019-03-24T15:22:33.399Z,3.43
2019-03-24T15:25:03.334Z,3.50
2019-03-24T15:27:33.274Z,4.10
2019-03-24T15:30:05.179Z,2.93
2019-03-24T15:32:35.170Z,3.27
2019-03-24T15:35:05.045Z,4.27
2019-03-24T15:37:35.000Z,3.20
2019-03-24T15:40:05.271Z,3.40
2019-03-24T15:42:35.053Z,3.23
2019-03-24T15:45:12.682Z,3.10
2019-03-24T15:47:42.476Z,3.17
2019-03-24T15:50:12.675Z,2.77
2019-03-24T15:52:45.476Z,3.13
2019-03-24T15:55:15.408Z,2.37
2019-03-24T15:57:45.519Z,2.90
2019-03-24T16:00:18.881Z,2.57
2019-03-24T16:02:48.653Z,3.40
2019-03-24T16:05:18.425Z,2.30
2019-03-24T16:07:48.212Z,2.40
2019-03-24T16:10:18.058Z,121.10
2019-03-24T16:12:47.922Z,43.40
2019-03-24T16:15:17.728Z,29.80
2019-03-24T16:17:47.771Z,7.60
2019-03-24T16:20:17.562Z,6.30
2019-03-24T16:22:47.426Z,12.07
2019-03-24T16:25:17.383Z,10.60
2019-03-24T16:27:47.323Z,15.43
2019-03-24T16:30:17.177Z,9.73
2019-03-24T16:32:47.030Z,7.00
2019-03-24T16:35:16.967Z,4.83
2019-03-24T16:37:50.944Z,5.00
2019-03-24T16:40:20.851Z,6.70
2019-03-24T16:42:50.893Z,7.30
2019-03-24T16:45:20.895Z,4.20
2019-03-24T16:47:50.835Z,5.47
2019-03-24T16:50:26.899Z,2.97
2019-03-24T16:52:54.662Z,3.53
2019-03-24T16:55:24.957Z,3.43
2019-03-24T16:57:54.796Z,5.90
2019-03-24T17:00:28.529Z,3.70
2019-03-24T17:02:58.409Z,3.60
2019-03-24T17:05:28.327Z,3.30
2019-03-24T17:07:58.159Z,3.37
2019-03-24T17:10:27.939Z,5.13
2019-03-24T17:12:57.865Z,5.70
2019-03-24T17:15:27.699Z,5.70
2019-03-24T17:17:59.496Z,3.97
2019-03-24T17:20:30.507Z,2.80
2019-03-24T17:23:01.975Z,5.10
2019-03-24T17:25:31.899Z,3.03
2019-03-24T17:28:04.878Z,2.93
2019-03-24T17:30:34.752Z,2.93
2019-03-24T17:33:05.954Z,3.05
2019-03-24T17:35:35.916Z,2.67
2019-03-24T17:38:05.771Z,3.37
2019-03-24T17:40:39.030Z,4.10
2019-03-24T17:43:07.411Z,4.20
2019-03-24T17:45:37.317Z,4.17
2019-03-24T17:48:07.234Z,3.17
2019-03-24T17:50:37.582Z,3.00
2019-03-24T17:53:07.473Z,3.17
2019-03-24T17:55:38.897Z,3.08
2019-03-24T17:58:08.773Z,4.25
2019-03-24T18:00:50.803Z,3.00
2019-03-24T18:03:28.238Z,3.67
2019-03-24T18:05:59.640Z,3.98
2019-03-24T18:08:30.075Z,3.40
2019-03-24T18:11:02.543Z,3.92
2019-03-24T18:13:34.748Z,4.60
2019-03-24T18:16:08.367Z,5.85
2019-03-24T18:18:42.469Z,5.30
2019-03-24T18:21:13.199Z,4.72
2019-03-24T18:23:55.038Z,4.03
2019-03-24T18:26:25.959Z,3.62
2019-03-24T18:28:56.175Z,4.72
2019-03-24T18:31:30.034Z,4.83
2019-03-24T18:33:59.926Z,4.47
2019-03-24T18:36:29.903Z,5.10
2019-03-24T18:39:03.409Z,4.17
2019-03-24T18:41:42.448Z,4.13
2019-03-24T18:44:12.340Z,3.30
2019-03-24T18:46:44.887Z,4.28
2019-03-24T18:49:23.225Z,4.80
2019-03-24T18:51:54.217Z,4.20
2019-03-24T18:54:27.121Z,5.97
2019-03-24T18:56:59.397Z,4.58
2019-03-24T18:59:28.735Z,8.45
2019-03-24T19:02:03.987Z,6.35
2019-03-24T19:04:36.292Z,3.72
2019-03-24T19:07:14.165Z,5.17
2019-03-24T19:09:43.969Z,61.05
2019-03-24T19:12:14.296Z,174.68
2019-03-24T19:14:48.514Z,54.33
2019-03-24T19:17:18.735Z,31.10
2019-03-24T19:19:52.759Z,20.88
2019-03-24T19:22:33.094Z,7.90
2019-03-24T19:24:57.717Z,13.00
2019-03-24T19:27:28.725Z,5.83
2019-03-24T19:30:01.306Z,5.42
2019-03-24T19:32:31.720Z,5.47
2019-03-24T19:35:01.835Z,4.15
2019-03-24T19:37:33.308Z,3.80
2019-03-24T19:40:04.476Z,4.55
2019-03-24T19:42:35.076Z,6.87
2019-03-24T19:45:07.844Z,9.15
2019-03-24T19:47:37.774Z,16.85
2019-03-24T19:50:08.092Z,12.63
2019-03-24T19:52:44.564Z,10.53
2019-03-24T19:55:09.829Z,25.17
2019-03-24T19:57:42.019Z,12.88
2019-03-24T20:00:12.309Z,12.28
2019-03-24T20:02:42.126Z,18.37
2019-03-24T20:05:12.672Z,11.95
2019-03-24T20:07:48.063Z,8.13
2019-03-24T20:10:19.863Z,15.05
2019-03-24T20:12:53.009Z,13.90
2019-03-24T20:15:23.209Z,9.30
2019-03-24T20:17:53.157Z,6.15
2019-03-24T20:20:23.104Z,12.53
2019-03-24T20:22:56.921Z,12.20
2019-03-24T20:25:25.094Z,6.00
2019-03-24T20:27:57.312Z,39.55
2019-03-24T20:30:27.613Z,81.50
2019-03-24T20:32:57.967Z,73.35
2019-03-24T20:35:30.234Z,45.30
2019-03-24T20:38:02.901Z,29.45
2019-03-24T20:40:36.014Z,12.90
2019-03-24T20:43:10.301Z,18.62
2019-03-24T20:45:44.023Z,22.32
2019-03-24T20:48:14.073Z,16.70
2019-03-24T20:50:44.350Z,12.35
2019-03-24T20:53:18.408Z,6.47
2019-03-24T20:55:47.672Z,5.45
2019-03-24T20:58:17.540Z,8.65
2019-03-24T21:00:47.418Z,7.35
2019-03-24T21:03:17.630Z,7.40
2019-03-24T21:05:47.608Z,5.50
2019-03-24T21:08:21.393Z,5.83
2019-03-24T21:10:51.748Z,15.05
2019-03-24T21:13:22.418Z,18.95
2019-03-24T21:15:53.133Z,9.05
2019-03-24T21:18:23.605Z,7.92
2019-03-24T21:20:55.174Z,6.10
2019-03-24T21:23:29.886Z,5.50
2019-03-24T21:25:57.884Z,6.42
2019-03-24T21:28:28.504Z,5.47
2019-03-24T21:30:58.422Z,5.62
2019-03-24T21:33:28.276Z,5.05
2019-03-24T21:35:59.066Z,5.08
2019-03-24T21:38:32.202Z,13.22
2019-03-24T21:41:02.428Z,6.65
2019-03-24T21:43:33.552Z,5.37
2019-03-24T21:46:04.874Z,5.20
2019-03-24T21:48:37.156Z,6.50
2019-03-24T21:51:11.293Z,5.22
2019-03-24T21:53:41.264Z,5.75
2019-03-24T21:56:14.016Z,5.50
2019-03-24T21:58:45.723Z,5.47
2019-03-24T22:01:16.878Z,5.78
2019-03-24T22:03:47.256Z,6.10
2019-03-24T22:06:22.217Z,7.90
2019-03-24T22:08:52.577Z,6.15
2019-03-24T22:11:23.986Z,5.95
2019-03-24T22:13:54.574Z,5.20
2019-03-24T22:16:25.299Z,4.87
2019-03-24T22:18:55.214Z,5.83
2019-03-24T22:21:27.446Z,4.85
2019-03-24T22:23:58.722Z,6.37
2019-03-24T22:26:33.732Z,6.08
2019-03-24T22:29:03.764Z,6.03
2019-03-24T22:31:35.148Z,6.35
2019-03-24T22:34:05.230Z,6.40
2019-03-24T22:36:35.247Z,6.17
2019-03-24T22:39:07.585Z,9.55
2019-03-24T22:41:38.638Z,9.28
2019-03-24T22:44:09.038Z,7.15
2019-03-24T22:46:38.825Z,6.12
2019-03-24T22:49:11.428Z,5.50
2019-03-24T22:51:41.574Z,6.60
2019-03-24T22:54:12.362Z,6.15
2019-03-24T22:56:42.378Z,5.28
2019-03-24T22:59:15.688Z,6.00
2019-03-24T23:01:46.686Z,6.10
2019-03-24T23:04:17.610Z,6.00
2019-03-24T23:06:48.011Z,7.42
2019-03-24T23:09:18.173Z,6.87
2019-03-24T23:11:49.672Z,7.42
2019-03-24T23:14:24.167Z,7.20
2019-03-24T23:16:57.902Z,16.35
2019-03-24T23:19:28.721Z,7.78
2019-03-24T23:21:58.755Z,5.53
2019-03-24T23:24:28.530Z,6.08
2019-03-24T23:26:58.332Z,6.10
2019-03-24T23:29:28.777Z,6.28
2019-03-24T23:31:59.087Z,6.08
2019-03-24T23:34:29.058Z,5.58
2019-03-24T23:36:59.130Z,5.87
2019-03-24T23:39:29.240Z,5.85
2019-03-24T23:41:59.066Z,5.03
2019-03-24T23:44:30.917Z,5.72
2019-03-24T23:47:01.787Z,5.58
2019-03-24T23:49:34.576Z,7.22
2019-03-24T23:52:05.632Z,5.90
2019-03-24T23:54:36.557Z,7.37
2019-03-24T23:57:07.179Z,7.00
2019-03-24T23:59:38.147Z,8.35
